Time;durP1;ratioP1;P1;durP2;ratioP2;P2;SDS_P1;SDS_P2;PMS_P1;PMS_P2;Temp;Humidity;BMP_temperature;BMP_pressure;BME280_temperature;BME280_humidity;BME280_pressure;Samples;Min_cycle;Max_cycle;Signal;HPM_P1;HPM_P2
2022/07/25 00:02:16;;;;;;;;;18.33;18.33;;;;;25.32;56.23;100611.31;5059848;28;45289;-74
2022/07/25 00:04:41;;;;;;;;;14.67;14.67;;;;;25.25;56.88;100606.16;5059588;28;45399;-74
2022/07/25 00:07:07;;;;;;;;;19.00;17.00;;;;;25.26;57.15;100615.94;5047639;28;48538;-74
2022/07/25 00:09:33;;;;;;;;;18.00;17.00;;;;;25.20;57.24;100623.28;5059446;28;45466;-74
2022/07/25 00:11:58;;;;;;;;;19.00;17.67;;;;;25.16;57.38;100611.34;5045580;28;45396;-74
2022/07/25 00:14:23;;;;;;;;;19.33;18.67;;;;;25.10;57.67;100601.56;5041457;28;45566;-73
2022/07/25 00:16:49;;;;;;;;;18.33;18.33;;;;;25.13;57.56;100600.19;5056928;28;47216;-73
2022/07/25 00:19:14;;;;;;;;;18.00;17.00;;;;;25.04;57.51;100589.91;5041369;28;45308;-74
2022/07/25 00:21:39;;;;;;;;;14.00;14.00;;;;;25.06;57.88;100589.63;5059416;28;45283;-74
2022/07/25 00:24:05;;;;;;;;;16.33;16.33;;;;;25.01;57.65;100589.63;5059462;28;45507;-74
2022/07/25 00:26:30;;;;;;;;;16.00;15.33;;;;;25.00;57.65;100577.97;5059137;28;46368;-74
2022/07/25 00:28:56;;;;;;;;;17.33;15.33;;;;;24.95;57.69;100567.91;5059435;28;45313;-73
2022/07/25 00:31:21;;;;;;;;;20.67;17.67;;;;;24.94;58.14;100573.63;5041196;28;45349;-74
2022/07/25 00:33:47;;;;;;;;;15.00;15.00;;;;;24.98;58.10;100585.56;5059201;28;45263;-73
2022/07/25 00:36:12;;;;;;;;;17.67;16.00;;;;;24.91;58.13;100568.75;5059265;28;45396;-73
2022/07/25 00:38:37;;;;;;;;;16.00;16.00;;;;;24.86;58.55;100566.00;5059038;28;45543;-73
2022/07/25 00:41:03;;;;;;;;;17.67;17.67;;;;;24.87;58.81;100573.06;5059429;28;45809;-74
2022/07/25 00:43:29;;;;;;;;;15.33;15.33;;;;;24.83;58.65;100572.78;5059043;28;45466;-74
2022/07/25 00:45:54;;;;;;;;;18.33;17.67;;;;;24.81;59.21;100566.84;5043942;28;47660;-74
2022/07/25 00:48:20;;;;;;;;;17.67;16.67;;;;;24.79;59.42;100572.56;5058990;28;45428;-74
2022/07/25 00:50:45;;;;;;;;;15.00;15.00;;;;;24.77;59.54;100569.28;5040753;28;45384;-74
2022/07/25 00:53:10;;;;;;;;;17.33;17.00;;;;;24.69;59.65;100558.97;5058934;28;45524;-74
2022/07/25 00:55:36;;;;;;;;;17.33;17.33;;;;;24.72;59.32;100577.44;5040891;28;47445;-74
2022/07/25 00:58:02;;;;;;;;;18.00;16.67;;;;;24.66;59.37;100573.13;5058619;28;45494;-74
2022/07/25 01:00:27;;;;;;;;;19.33;19.33;;;;;24.68;59.42;100573.63;5059083;28;45843;-73
2022/07/25 01:02:52;;;;;;;;;21.00;20.00;;;;;24.61;59.52;100564.97;5058726;28;45577;-74
2022/07/25 01:05:18;;;;;;;;;19.00;19.00;;;;;24.62;59.40;100570.13;5058957;28;45391;-74
2022/07/25 01:07:44;;;;;;;;;18.00;18.00;;;;;24.59;59.62;100560.63;5051631;28;45672;-73
2022/07/25 01:10:09;;;;;;;;;17.33;15.67;;;;;24.56;59.31;100555.72;5040947;28;45313;-73
2022/07/25 01:12:48;;;;;;;;;17.00;17.00;;;;;24.50;59.37;100545.97;5058486;28;45292;-74
2022/07/25 01:15:15;;;;;;;;;18.00;17.00;;;;;24.53;59.82;100550.84;5058580;28;45299;-73
2022/07/25 01:17:40;;;;;;;;;19.00;18.67;;;;;24.48;59.97;100542.69;5063635;28;45334;-73
2022/07/25 01:20:12;;;;;;;;;21.33;19.67;;;;;24.53;59.46;100547.31;5040370;28;45338;-73
2022/07/25 01:22:37;;;;;;;;;21.00;21.00;;;;;24.44;60.02;100544.34;5058773;28;45210;-74
2022/07/25 01:25:03;;;;;;;;;18.67;18.67;;;;;24.46;59.69;100548.41;5058235;28;45232;-74
2022/07/25 01:27:30;;;;;;;;;17.00;17.00;;;;;24.44;59.90;100550.59;5046334;28;45733;-74
2022/07/25 01:29:55;;;;;;;;;18.00;18.00;;;;;24.39;60.33;100542.44;5040359;28;45515;-74
2022/07/25 01:32:21;;;;;;;;;16.33;14.67;;;;;24.42;60.42;100552.75;5058678;28;45343;-74
2022/07/25 01:34:46;;;;;;;;;19.67;19.67;;;;;24.39;60.55;100547.88;5058567;28;46591;-74
2022/07/25 01:37:11;;;;;;;;;16.67;15.67;;;;;24.40;60.29;100551.41;5058516;28;45606;-73
2022/07/25 01:39:37;;;;;;;;;19.00;18.00;;;;;24.39;60.80;100541.63;5058527;28;45493;-74
2022/07/25 01:42:02;;;;;;;;;20.00;19.00;;;;;24.31;60.04;100530.25;5039598;28;46282;-73
2022/07/25 01:44:28;;;;;;;;;18.67;17.67;;;;;24.32;60.68;100544.59;5058263;28;46616;-74
2022/07/25 01:46:53;;;;;;;;;21.00;18.33;;;;;24.26;61.00;100535.66;5057969;28;45335;-74
2022/07/25 01:49:18;;;;;;;;;21.67;20.33;;;;;24.21;61.22;100543.78;5058351;28;45347;-74
2022/07/25 01:51:43;;;;;;;;;20.00;17.00;;;;;24.23;60.92;100544.34;5058236;28;45430;-73
2022/07/25 01:54:09;;;;;;;;;19.67;18.33;;;;;24.14;61.11;100537.81;5057928;28;46269;-73
2022/07/25 01:56:34;;;;;;;;;20.67;20.00;;;;;24.18;60.77;100555.22;5058303;28;45299;-73
2022/07/25 01:58:59;;;;;;;;;19.00;19.00;;;;;24.11;60.60;100607.00;5058387;28;45400;-73
2022/07/25 02:01:25;;;;;;;;;17.00;17.00;;;;;24.02;60.77;100560.59;5060212;28;45359;-74
2022/07/25 02:03:50;;;;;;;;;19.33;19.33;;;;;24.03;61.68;100562.22;5061514;28;45393;-73
2022/07/25 02:06:17;;;;;;;;;17.67;16.67;;;;;23.98;61.80;100600.22;5043278;28;46028;-73
2022/07/25 02:08:43;;;;;;;;;17.33;16.67;;;;;23.97;61.46;100582.28;5061582;28;45276;-74
2022/07/25 02:11:08;;;;;;;;;17.00;17.00;;;;;24.05;61.48;100586.38;5061265;28;45295;-74
2022/07/25 02:13:33;;;;;;;;;19.00;19.00;;;;;24.06;61.24;100572.53;5043313;28;48470;-74
2022/07/25 02:15:59;;;;;;;;;17.67;17.67;;;;;24.06;61.76;100574.41;5064489;28;45260;-73
2022/07/25 02:18:24;;;;;;;;;19.67;18.67;;;;;24.05;61.62;100568.19;5044968;28;45328;-73
2022/07/25 02:20:50;;;;;;;;;17.33;17.33;;;;;24.04;62.11;100563.03;5061408;28;45296;-74
2022/07/25 02:23:15;;;;;;;;;19.67;19.67;;;;;24.06;61.94;100563.56;5041796;28;46645;-74
2022/07/25 02:25:40;;;;;;;;;16.00;16.00;;;;;24.09;62.04;100558.44;5061374;28;45313;-73
2022/07/25 02:28:06;;;;;;;;;15.67;15.67;;;;;24.04;61.36;100558.44;5061294;28;45262;-74
2022/07/25 02:30:31;;;;;;;;;17.33;16.00;;;;;24.00;62.25;100546.47;5045647;28;45975;-73
2022/07/25 02:32:56;;;;;;;;;19.00;16.33;;;;;24.06;61.96;100556.25;5061333;28;45709;-73
2022/07/25 02:35:22;;;;;;;;;19.67;19.00;;;;;24.00;61.82;100546.47;5042965;28;45993;-74
2022/07/25 02:37:47;;;;;;;;;17.33;16.00;;;;;24.05;61.62;100548.38;5061206;28;45280;-73
2022/07/25 02:40:13;;;;;;;;;19.00;17.00;;;;;24.01;61.75;100548.13;5042662;28;46163;-73
2022/07/25 02:42:38;;;;;;;;;17.33;16.67;;;;;24.03;62.01;100548.63;5061191;28;46285;-73
2022/07/25 02:45:04;;;;;;;;;19.33;16.33;;;;;23.99;61.79;100539.41;5060619;28;45503;-73
2022/07/25 02:47:29;;;;;;;;;16.33;16.33;;;;;23.99;61.87;100536.69;5060893;28;45355;-73
2022/07/25 02:49:55;;;;;;;;;17.00;17.00;;;;;23.99;61.69;100544.84;5060994;28;45346;-73
2022/07/25 02:52:20;;;;;;;;;20.67;19.33;;;;;23.96;62.02;100534.53;5053059;28;47126;-74
2022/07/25 02:54:45;;;;;;;;;15.67;15.33;;;;;23.98;62.18;100528.84;5042462;28;45391;-74
2022/07/25 02:57:11;;;;;;;;;17.67;16.67;;;;;23.94;62.40;100521.22;5051280;28;45390;-74
2022/07/25 02:59:36;;;;;;;;;19.00;18.00;;;;;23.96;62.43;100524.50;5060639;28;45527;-74
2022/07/25 03:02:01;;;;;;;;;17.00;17.00;;;;;23.94;62.41;100525.81;5060609;28;46816;-74
2022/07/25 03:04:27;;;;;;;;;17.00;16.00;;;;;23.95;63.15;100522.06;5060512;28;45335;-74
2022/07/25 03:06:52;;;;;;;;;22.67;19.33;;;;;23.98;62.68;100532.38;5060824;28;45272;-73
2022/07/25 03:09:18;;;;;;;;;18.33;18.33;;;;;23.90;62.29;100525.56;5060509;28;45537;-73
2022/07/25 03:11:43;;;;;;;;;17.00;16.67;;;;;23.93;62.76;100529.63;5059116;28;45477;-73
2022/07/25 03:14:09;;;;;;;;;18.33;17.67;;;;;23.95;62.58;100532.91;5050348;28;45680;-74
2022/07/25 03:16:35;;;;;;;;;17.00;16.67;;;;;23.93;62.70;100526.91;5046986;28;45291;-73
2022/07/25 03:19:01;;;;;;;;;18.67;18.00;;;;;23.91;62.68;100532.63;5060358;28;45268;-73
2022/07/25 03:21:26;;;;;;;;;18.33;17.67;;;;;23.88;63.45;100532.34;5042175;28;47530;-74
2022/07/25 03:23:51;;;;;;;;;17.33;16.33;;;;;23.89;63.14;100536.69;5060428;28;45360;-74
2022/07/25 03:26:17;;;;;;;;;22.00;22.00;;;;;23.83;63.40;100519.59;5052297;28;45450;-73
2022/07/25 03:28:42;;;;;;;;;19.33;19.33;;;;;23.80;63.93;100530.97;5060088;28;45293;-73
2022/07/25 03:31:07;;;;;;;;;19.00;19.00;;;;;23.82;63.46;100532.34;5060092;28;45450;-74
2022/07/25 03:33:33;;;;;;;;;20.00;16.00;;;;;23.80;63.25;100525.56;5042043;28;45365;-74
2022/07/25 03:35:59;;;;;;;;;18.67;18.67;;;;;23.83;63.55;100531.25;5042133;28;45344;-73
2022/07/25 03:38:24;;;;;;;;;20.00;17.67;;;;;23.84;63.96;100532.06;5059767;28;45415;-73
2022/07/25 03:40:49;;;;;;;;;19.33;18.00;;;;;23.79;64.15;100537.50;5045410;28;46902;-74
2022/07/25 03:43:15;;;;;;;;;21.67;19.33;;;;;23.76;63.78;100530.69;5042001;28;45447;-74
2022/07/25 03:45:40;;;;;;;;;21.33;21.33;;;;;23.71;63.71;100528.00;5059854;28;45352;-73
2022/07/25 03:48:06;;;;;;;;;19.67;19.33;;;;;23.75;63.64;100537.22;5059763;28;45918;-73
2022/07/25 03:50:31;;;;;;;;;21.00;17.33;;;;;23.69;63.50;100544.53;5059812;28;46173;-73
2022/07/25 03:52:56;;;;;;;;;22.67;21.67;;;;;23.65;64.19;100550.75;5059625;28;45384;-73
2022/07/25 03:55:22;;;;;;;;;18.67;18.33;;;;;23.61;64.55;100550.47;5060142;28;45390;-74
2022/07/25 03:57:47;;;;;;;;;20.00;18.00;;;;;23.56;64.24;100553.97;5059578;28;45520;-73
2022/07/25 04:00:14;;;;;;;;;21.33;20.00;;;;;23.58;64.55;100572.69;5059550;28;45513;-74
2022/07/25 04:02:40;;;;;;;;;21.33;21.33;;;;;23.55;63.73;100574.03;5052935;28;45327;-73
2022/07/25 04:05:06;;;;;;;;;20.33;18.33;;;;;23.51;63.45;100575.66;5059804;28;45462;-74
2022/07/25 04:07:31;;;;;;;;;16.67;16.67;;;;;23.43;62.79;100581.59;5051054;28;47642;-73
2022/07/25 04:09:57;;;;;;;;;17.00;16.33;;;;;23.41;62.28;100589.19;5041496;28;48382;-74
2022/07/25 04:12:22;;;;;;;;;14.33;14.00;;;;;23.33;62.58;100591.28;5059469;28;45340;-73
2022/07/25 04:14:47;;;;;;;;;14.00;14.00;;;;;23.27;62.06;100596.94;5041248;28;45375;-73
2022/07/25 04:17:13;;;;;;;;;19.67;19.67;;;;;23.27;62.25;100608.63;5046767;28;46904;-73
2022/07/25 04:19:39;;;;;;;;;18.00;18.00;;;;;23.25;62.88;100601.84;5059613;28;46583;-73
2022/07/25 04:22:04;;;;;;;;;16.33;16.00;;;;;23.22;62.68;100605.06;5044506;28;45938;-73
2022/07/25 04:24:29;;;;;;;;;14.00;14.00;;;;;23.15;61.37;100605.28;5059384;28;45692;-73
2022/07/25 04:26:55;;;;;;;;;14.33;13.33;;;;;23.17;61.29;100616.69;5056198;28;45662;-72
2022/07/25 04:29:20;;;;;;;;;13.00;12.67;;;;;23.16;60.48;100625.88;5059432;28;46128;-74
2022/07/25 04:31:45;;;;;;;;;11.00;11.00;;;;;23.07;59.59;100617.44;5059233;28;45350;-74
2022/07/25 04:34:11;;;;;;;;;12.00;12.00;;;;;23.04;58.99;100617.94;5059698;28;45409;-73
2022/07/25 04:36:36;;;;;;;;;14.67;12.00;;;;;23.01;58.76;100616.59;5059156;28;45306;-73
2022/07/25 04:39:01;;;;;;;;;7.67;7.67;;;;;23.01;58.73;100627.44;5059096;28;46340;-74
2022/07/25 04:41:27;;;;;;;;;8.00;8.00;;;;;23.01;58.73;100621.22;5049919;28;45816;-74
2022/07/25 04:43:52;;;;;;;;;6.00;6.00;;;;;22.98;58.05;100614.41;5059067;28;45207;-74
2022/07/25 04:46:21;;;;;;;;;5.67;5.67;;;;;23.00;57.36;100631.22;5058797;28;45369;-73
2022/07/25 04:48:47;;;;;;;;;5.00;5.00;;;;;22.97;56.64;100631.75;5058841;28;46632;-73
2022/07/25 04:51:12;;;;;;;;;5.00;5.00;;;;;23.00;56.64;100633.94;5058915;28;45382;-73
2022/07/25 04:53:37;;;;;;;;;4.67;4.67;;;;;23.00;56.77;100625.81;5040917;28;45384;-74
2022/07/25 04:56:04;;;;;;;;;6.33;5.00;;;;;23.06;56.57;100635.59;5040758;28;46495;-74
2022/07/25 04:58:30;;;;;;;;;5.67;4.00;;;;;23.03;56.64;100636.13;5058956;28;46777;-73
2022/07/25 05:00:56;;;;;;;;;6.00;6.00;;;;;23.02;56.35;100626.34;5058445;28;45332;-73
2022/07/25 05:03:22;;;;;;;;;10.00;8.00;;;;;23.07;56.83;100628.28;5059223;28;45294;-74
2022/07/25 05:05:47;;;;;;;;;7.00;6.00;;;;;23.10;56.58;100626.97;5058905;28;45372;-74
2022/07/25 05:08:13;;;;;;;;;4.33;4.33;;;;;23.06;56.27;100630.19;5058603;28;46978;-75
2022/07/25 05:10:38;;;;;;;;;5.00;5.00;;;;;23.07;56.05;100639.94;5058747;28;45797;-73
2022/07/25 05:13:03;;;;;;;;;4.00;4.00;;;;;23.00;56.47;100636.66;5058821;28;45351;-74
2022/07/25 05:15:29;;;;;;;;;5.00;5.00;;;;;22.98;56.08;100632.56;5058676;28;45328;-74
2022/07/25 05:17:54;;;;;;;;;4.33;4.00;;;;;22.99;56.12;100643.16;5056350;28;47280;-75
2022/07/25 05:20:20;;;;;;;;;4.00;4.00;;;;;22.90;56.58;100647.41;5040721;28;45369;-74
2022/07/25 05:22:45;;;;;;;;;5.00;3.67;;;;;22.95;56.71;100661.81;5058878;28;45354;-74
2022/07/25 05:25:11;;;;;;;;;5.00;4.33;;;;;22.98;56.93;100657.75;5058458;28;45352;-74
2022/07/25 05:27:37;;;;;;;;;4.33;4.00;;;;;22.92;57.19;100646.06;5058720;28;45327;-75
2022/07/25 05:30:04;;;;;;;;;3.33;3.33;;;;;22.93;57.27;100661.25;5058348;28;45600;-73
2022/07/25 05:32:30;;;;;;;;;4.33;3.67;;;;;22.93;57.61;100658.53;5059058;28;45379;-75
2022/07/25 05:34:55;;;;;;;;;3.67;3.00;;;;;22.89;57.63;100653.88;5051495;28;47037;-74
2022/07/25 05:37:21;;;;;;;;;3.00;3.00;;;;;22.94;57.49;100662.91;5046824;28;48257;-74
2022/07/25 05:39:46;;;;;;;;;4.67;4.00;;;;;22.90;57.57;100663.66;5062148;28;45342;-74
2022/07/25 05:42:11;;;;;;;;;4.67;3.33;;;;;22.82;57.61;100659.53;5047808;28;45392;-74
2022/07/25 05:44:37;;;;;;;;;2.00;2.00;;;;;22.90;57.96;100677.22;5043990;28;45533;-74
2022/07/25 05:47:02;;;;;;;;;3.00;3.00;;;;;22.83;57.57;100659.28;5041918;28;47332;-74
2022/07/25 05:49:27;;;;;;;;;3.00;2.67;;;;;22.96;58.08;100673.47;5061745;28;45221;-75
2022/07/25 05:51:53;;;;;;;;;4.33;4.00;;;;;23.00;57.48;100677.28;5061985;28;45807;-74
2022/07/25 05:54:18;;;;;;;;;3.00;3.00;;;;;23.00;57.78;100676.47;5061651;28;45497;-74
2022/07/25 05:56:43;;;;;;;;;4.00;4.00;;;;;22.95;57.82;100679.94;5061863;28;46251;-74
2022/07/25 05:59:09;;;;;;;;;5.33;5.33;;;;;22.92;57.38;100681.28;5061927;28;45213;-74
2022/07/25 06:01:34;;;;;;;;;8.00;6.00;;;;;22.91;57.34;100682.38;5061486;28;45284;-74
2022/07/25 06:04:00;;;;;;;;;4.00;3.00;;;;;22.95;57.11;100688.06;5061673;28;45500;-75
2022/07/25 06:06:25;;;;;;;;;8.33;6.33;;;;;22.94;57.33;100689.16;5061496;28;45571;-73
2022/07/25 06:08:50;;;;;;;;;3.00;3.00;;;;;22.96;57.52;100689.72;5061426;28;45428;-74
2022/07/25 06:11:16;;;;;;;;;4.67;3.00;;;;;22.96;57.04;100689.72;5043539;28;45268;-74
2022/07/25 06:13:41;;;;;;;;;7.00;7.00;;;;;23.02;57.33;100699.50;5047581;28;46003;-74
2022/07/25 06:16:07;;;;;;;;;6.67;4.00;;;;;22.94;57.46;100691.88;5047357;28;47800;-75
2022/07/25 06:18:33;;;;;;;;;6.00;6.00;;;;;22.96;56.99;100695.16;5061950;28;45445;-74
2022/07/25 06:20:59;;;;;;;;;6.33;6.00;;;;;23.03;57.39;100705.75;5061409;28;45241;-74
2022/07/25 06:23:25;;;;;;;;;4.33;4.33;;;;;23.06;57.73;100708.78;5061095;28;45407;-74
2022/07/25 06:25:50;;;;;;;;;7.00;6.00;;;;;23.01;57.56;100703.31;5060964;28;45365;-74
2022/07/25 06:28:16;;;;;;;;;6.33;6.33;;;;;23.00;58.10;100700.84;5038512;28;45466;-74
2022/07/25 06:30:45;;;;;;;;;4.33;4.33;;;;;22.98;58.12;100705.72;5061221;28;45352;-75
2022/07/25 06:33:11;;;;;;;;;6.67;6.67;;;;;22.99;58.65;100719.03;5061314;28;45239;-74
2022/07/25 06:35:36;;;;;;;;;7.00;6.33;;;;;22.92;58.78;100726.53;5025495;28;47594;-74
2022/07/25 06:38:02;;;;;;;;;4.33;4.33;;;;;22.86;59.01;100724.88;5052842;28;45738;-73
2022/07/25 06:40:27;;;;;;;;;4.67;4.67;;;;;22.88;59.64;100717.28;5061325;28;45380;-74
2022/07/25 06:42:53;;;;;;;;;4.33;4.33;;;;;22.86;60.32;100730.28;5049496;28;46169;-72
2022/07/25 06:45:18;;;;;;;;;6.00;5.33;;;;;22.81;60.87;100729.16;5060792;28;45523;-73
2022/07/25 06:47:44;;;;;;;;;3.00;3.00;;;;;22.80;60.56;100727.53;5060857;28;45379;-74
2022/07/25 06:50:13;;;;;;;;;3.67;3.00;;;;;22.82;60.34;100724.56;5051612;28;45336;-73
2022/07/25 06:52:39;;;;;;;;;3.00;3.00;;;;;22.83;60.64;100727.00;5057956;28;45288;-74
2022/07/25 06:55:06;;;;;;;;;3.67;3.67;;;;;22.86;60.74;100720.25;5057477;28;46464;-75
2022/07/25 06:57:31;;;;;;;;;4.00;3.00;;;;;22.85;60.44;100729.47;5049088;28;45216;-74
2022/07/25 06:59:57;;;;;;;;;2.00;2.00;;;;;22.92;60.37;100734.66;5061820;28;45437;-74
2022/07/25 07:02:22;;;;;;;;;3.67;3.33;;;;;22.99;60.26;100734.44;5043306;28;46260;-74
2022/07/25 07:04:48;;;;;;;;;6.67;5.33;;;;;23.07;60.68;100739.38;5060534;28;46802;-74
2022/07/25 07:07:13;;;;;;;;;4.00;4.00;;;;;23.07;60.25;100737.50;5060887;28;45369;-75
2022/07/25 07:09:39;;;;;;;;;3.33;3.00;;;;;23.03;59.95;100736.41;5050616;28;45380;-74
2022/07/25 07:12:04;;;;;;;;;3.67;3.67;;;;;23.12;59.88;100744.03;5046765;28;45807;-75
2022/07/25 07:14:30;;;;;;;;;3.00;2.67;;;;;23.12;59.66;100741.31;5062678;28;46003;-74
2022/07/25 07:16:55;;;;;;;;;3.00;3.00;;;;;23.06;59.44;100743.19;5075025;28;45417;-74
2022/07/25 07:19:21;;;;;;;;;4.33;4.33;;;;;23.09;59.72;100742.66;5064160;28;45423;-74
2022/07/25 07:21:48;;;;;;;;;3.00;2.67;;;;;23.16;59.85;100751.38;5061014;28;45374;-74
2022/07/25 07:24:14;;;;;;;;;6.00;6.00;;;;;23.24;60.19;100765.53;5048316;28;48256;-75
2022/07/25 07:26:39;;;;;;;;;5.00;4.00;;;;;23.27;60.21;100755.00;5044272;28;45253;-74
2022/07/25 07:29:04;;;;;;;;;2.33;2.33;;;;;23.34;60.52;100768.31;5058048;28;45510;-74
2022/07/25 07:31:30;;;;;;;;;7.33;4.33;;;;;23.39;59.83;100771.13;5052647;28;45210;-74
2022/07/25 07:33:57;;;;;;;;;4.00;4.00;;;;;23.42;59.77;100773.31;5056265;28;47386;-75
2022/07/25 07:36:23;;;;;;;;;4.00;4.00;;;;;23.40;59.57;100772.75;5061906;28;45292;-74
2022/07/25 07:38:48;;;;;;;;;3.00;3.00;;;;;23.44;59.77;100770.34;5062572;28;45398;-75
2022/07/25 07:41:14;;;;;;;;;5.33;4.00;;;;;23.50;59.51;100769.31;5062599;28;45376;-75
2022/07/25 07:43:40;;;;;;;;;6.00;4.33;;;;;23.60;59.53;100770.41;5039679;28;47268;-74
2022/07/25 07:46:06;;;;;;;;;3.00;3.00;;;;;23.64;59.90;100769.63;5055039;28;45499;-75
2022/07/25 07:48:32;;;;;;;;;4.00;3.33;;;;;23.74;59.54;100774.31;5057888;28;45340;-74
2022/07/25 07:50:59;;;;;;;;;5.00;5.00;;;;;23.80;59.23;100772.44;5041472;28;46410;-74
2022/07/25 07:56:25;;;;;;;;;5.33;3.67;;;;;23.91;58.92;100766.00;4983237;28;45405;-74
2022/07/25 07:58:50;;;;;;;;;5.33;5.33;;;;;23.98;58.85;100773.06;5033360;28;45380;-77
2022/07/25 08:01:15;;;;;;;;;4.33;4.33;;;;;24.01;58.35;100778.81;5045451;28;46403;-74
2022/07/25 08:03:41;;;;;;;;;1.00;0.00;;;;;24.03;58.64;100776.63;5044966;28;48251;-77
2022/07/25 08:06:06;;;;;;;;;5.00;5.00;;;;;24.06;58.78;100769.84;5052761;28;46132;-76
2022/07/25 08:08:32;;;;;;;;;4.67;4.67;;;;;24.12;58.46;100776.94;5064141;28;45389;-76
2022/07/25 08:10:57;;;;;;;;;8.33;6.67;;;;;24.15;58.49;100781.88;5050841;28;45198;-77
2022/07/25 08:13:28;;;;;;;;;4.00;3.33;;;;;24.25;58.16;100791.13;5050930;28;46932;-77
2022/07/25 08:15:59;;;;;;;;;3.67;3.00;;;;;24.27;58.32;100795.22;5047608;28;45362;-78
2022/07/25 08:18:25;;;;;;;;;4.00;4.00;;;;;24.32;58.12;100795.25;5042255;28;45493;-77
2022/07/25 08:20:52;;;;;;;;;5.33;5.33;;;;;24.38;58.07;100806.09;5030636;28;46281;-77
2022/07/25 08:23:18;;;;;;;;;5.00;5.00;;;;;24.39;57.63;100799.63;5044622;28;48072;-79
2022/07/25 08:25:45;;;;;;;;;2.00;2.00;;;;;24.46;57.49;100802.91;5048047;28;45458;-77
2022/07/25 08:28:12;;;;;;;;;3.00;3.00;;;;;24.55;57.85;100795.03;5066769;28;45305;-77
2022/07/25 08:30:38;;;;;;;;;4.33;3.67;;;;;24.61;57.08;100791.25;5065174;28;45395;-77
2022/07/25 08:33:06;;;;;;;;;4.33;3.67;;;;;24.73;56.55;100792.91;5067297;28;45443;-77
2022/07/25 08:35:34;;;;;;;;;5.67;5.33;;;;;24.82;56.54;100807.59;5046777;28;45826;-79
2022/07/25 08:38:00;;;;;;;;;3.00;3.00;;;;;24.89;56.46;100810.06;5041942;28;45354;-78
2022/07/25 08:40:27;;;;;;;;;3.00;3.00;;;;;24.98;56.38;100803.03;5047727;28;46473;-79
2022/07/25 08:42:57;;;;;;;;;4.00;4.00;;;;;24.97;56.33;100809.56;5059646;28;45501;-77
2022/07/25 08:45:23;;;;;;;;;4.00;4.00;;;;;25.09;55.43;100815.56;5039554;28;45419;-79
2022/07/25 08:47:51;;;;;;;;;4.67;3.67;;;;;25.12;55.62;100816.06;5053583;28;45394;-78
2022/07/25 08:50:20;;;;;;;;;4.33;4.33;;;;;25.23;55.49;100825.06;5038788;28;46046;-78
2022/07/25 08:52:47;;;;;;;;;3.00;3.00;;;;;25.30;55.12;100821.00;5056265;28;46529;-78
2022/07/25 08:55:15;;;;;;;;;3.00;3.00;;;;;25.39;55.24;100820.44;5047353;28;45832;-78
2022/07/25 08:57:45;;;;;;;;;4.00;4.00;;;;;25.46;54.80;100827.22;5059899;28;45349;-79
2022/07/25 09:00:12;;;;;;;;;4.00;4.00;;;;;25.50;54.89;100821.25;5058780;28;45335;-78
2022/07/25 09:02:38;;;;;;;;;5.00;4.00;;;;;25.58;54.78;100826.94;5041696;28;48311;-79
2022/07/25 09:05:04;;;;;;;;;4.00;3.00;;;;;25.59;54.76;100823.16;5043808;28;45377;-79
2022/07/25 09:07:40;;;;;;;;;2.33;2.33;;;;;25.68;54.18;100836.22;5046623;28;45368;-77
2022/07/25 09:10:17;;;;;;;;;3.00;3.00;;;;;25.78;54.67;100830.75;5048656;28;46548;-78
2022/07/25 09:12:59;;;;;;;;;5.00;4.33;;;;;25.87;53.71;100828.28;5070633;28;45470;-78
2022/07/25 09:15:28;;;;;;;;;5.33;4.00;;;;;25.90;53.43;100837.78;5071635;28;45334;-78
2022/07/25 09:17:55;;;;;;;;;4.00;4.00;;;;;25.91;53.59;100842.16;5082976;28;45390;-78
2022/07/25 09:20:21;;;;;;;;;3.00;3.00;;;;;26.02;53.25;100837.50;5061977;28;45502;-78
2022/07/25 09:22:47;;;;;;;;;3.67;2.67;;;;;26.05;52.18;100850.56;5053266;28;46178;-77
2022/07/25 09:25:39;;;;;;;;;3.67;3.67;;;;;26.09;52.82;100849.72;5030817;28;45560;-77
2022/07/25 09:28:11;;;;;;;;;3.00;3.00;;;;;26.16;52.38;100852.16;5046620;28;45490;-77
2022/07/25 09:30:38;;;;;;;;;4.00;2.67;;;;;26.18;51.81;100849.16;5059321;28;46373;-76
2022/07/25 09:33:03;;;;;;;;;3.33;3.00;;;;;26.27;52.32;100855.66;5070966;28;46545;-76
2022/07/25 09:35:31;;;;;;;;;2.00;2.00;;;;;26.43;52.70;100855.63;5052647;28;45457;-76
2022/07/25 09:38:07;;;;;;;;;4.67;4.67;;;;;26.47;52.41;100862.97;5074023;28;45284;-77
2022/07/25 09:40:32;;;;;;;;;2.00;2.00;;;;;26.45;51.96;100867.06;5060128;28;45455;-78
2022/07/25 09:42:58;;;;;;;;;0.67;0.67;;;;;26.41;51.50;100863.25;5053893;28;46680;-76
2022/07/25 09:45:23;;;;;;;;;3.00;3.00;;;;;26.44;52.19;100858.09;5074720;28;45310;-77
2022/07/25 09:47:53;;;;;;;;;3.00;2.00;;;;;26.46;51.81;100866.78;5074665;28;45747;-76
2022/07/25 09:50:20;;;;;;;;;4.00;4.00;;;;;26.41;51.77;100861.38;5053838;28;46157;-76
2022/07/25 09:52:46;;;;;;;;;1.67;1.67;;;;;26.42;51.80;100865.72;5071064;28;46591;-77
2022/07/25 09:58:09;;;;;;;;;3.33;3.33;;;;;26.42;52.00;100867.59;5055979;28;45541;-77
2022/07/25 10:00:35;;;;;;;;;4.00;3.67;;;;;26.43;52.46;100852.91;5059586;28;46342;-75
2022/07/25 10:03:14;;;;;;;;;3.00;2.00;;;;;26.38;51.95;100818.31;5061548;28;46596;-76
2022/07/25 10:05:46;;;;;;;;;2.00;1.00;;;;;26.70;52.28;100865.31;5065370;28;45379;-76
2022/07/25 10:08:12;;;;;;;;;1.00;1.00;;;;;26.70;51.52;100852.47;5061339;28;45249;-76
2022/07/25 10:10:40;;;;;;;;;2.00;2.00;;;;;26.71;51.99;100864.22;5064070;28;45931;-77
2022/07/25 10:13:12;;;;;;;;;3.67;3.67;;;;;26.77;52.20;100876.72;5058935;28;45328;-77
2022/07/25 10:15:50;;;;;;;;;4.00;2.00;;;;;26.76;51.99;100868.81;5055248;28;45249;-77
2022/07/25 10:18:23;;;;;;;;;3.00;3.00;;;;;26.73;52.09;100864.75;5057566;28;45265;-76
2022/07/25 10:20:51;;;;;;;;;4.00;4.00;;;;;26.73;51.88;100872.94;5052632;28;46016;-79
2022/07/25 10:23:17;;;;;;;;;7.00;4.67;;;;;26.72;51.49;100871.28;5056531;28;47352;-77
2022/07/25 10:25:43;;;;;;;;;2.00;2.00;;;;;26.66;51.64;100869.69;5068954;28;45526;-77
2022/07/25 10:28:09;;;;;;;;;1.33;1.33;;;;;26.69;52.24;100869.94;5035445;28;45278;-77
2022/07/25 10:30:36;;;;;;;;;2.00;2.00;;;;;26.78;51.62;100881.06;5073488;28;45418;-78
2022/07/25 10:33:17;;;;;;;;;2.00;2.00;;;;;26.71;51.45;100859.59;5050877;28;47726;-77
2022/07/25 10:35:43;;;;;;;;;2.00;2.00;;;;;26.92;51.31;100877.72;5067770;28;45612;-79
2022/07/25 10:38:09;;;;;;;;;3.00;3.00;;;;;26.94;51.48;100867.34;5069885;28;45379;-78
2022/07/25 10:40:39;;;;;;;;;4.00;3.00;;;;;27.05;51.00;100879.00;5034477;28;46169;-77
2022/07/25 10:43:04;;;;;;;;;3.00;3.00;;;;;27.05;51.45;100885.28;5052914;28;46495;-79
2022/07/25 10:45:38;;;;;;;;;1.00;1.00;;;;;27.04;50.70;100883.69;5049786;28;45289;-77
2022/07/25 10:48:08;;;;;;;;;6.33;5.00;;;;;27.05;50.30;100881.75;5058441;28;44718;-77
2022/07/25 10:50:34;;;;;;;;;3.00;3.00;;;;;27.03;50.44;100887.50;5058320;28;45365;-79
2022/07/25 10:52:59;;;;;;;;;2.00;2.00;;;;;27.06;50.30;100891.56;5069191;28;46108;-77
2022/07/25 10:55:27;;;;;;;;;4.00;4.00;;;;;27.03;49.79;100897.59;5071452;28;45332;-77
2022/07/25 10:58:00;;;;;;;;;3.00;3.00;;;;;27.03;50.65;100886.69;5072109;28;44659;-77
2022/07/25 11:00:26;;;;;;;;;2.00;2.00;;;;;27.04;49.79;100893.75;5071206;28;45424;-78
2022/07/25 11:02:56;;;;;;;;;5.33;5.33;;;;;26.97;49.55;100891.34;5071647;28;46094;-78
2022/07/25 11:05:22;;;;;;;;;5.33;4.00;;;;;26.96;49.87;100889.69;5034318;28;45309;-78
2022/07/25 11:07:52;;;;;;;;;3.00;3.00;;;;;26.97;50.39;100888.59;5050820;28;45294;-77
2022/07/25 11:10:25;;;;;;;;;5.33;5.33;;;;;26.99;50.02;100891.88;5055971;28;46196;-77
2022/07/25 11:12:51;;;;;;;;;5.00;5.00;;;;;26.94;50.48;100883.72;5073305;28;46140;-77
2022/07/25 11:15:22;;;;;;;;;2.67;2.67;;;;;27.03;49.82;100892.13;5072832;28;45326;-77
2022/07/25 11:17:52;;;;;;;;;4.00;3.67;;;;;26.99;50.31;100883.69;5043947;28;45257;-77
2022/07/25 11:20:20;;;;;;;;;3.00;3.00;;;;;26.94;50.56;100889.16;5054438;28;45374;-78
2022/07/25 11:22:54;;;;;;;;;3.33;3.00;;;;;26.87;50.39;100881.28;5059902;28;46404;-75